EKAE weather

Ærø Airport
Ærø, South Denmark, Denmark

Public forecast

Using degrees Celsius for public forecast. Weather courtesy of forecast.io.

Closest aviation weather report (METAR) to Ærø Airport

Closest report is Sønderborg Airport, 23.9 nm (44.3 km) WNW. Retrieved 2020/04/04 01:20 UTC (29 minutes ago):

EKSB 040120Z AUTO 22004KT 9999NDV SCT083/// 02/01 Q1018

Closest aviation forecast (TAF) to Ærø Airport

Forecast is more than 12 hours old.

Closest forecast is Sønderborg Airport, 23.9 nm (44.3 km) WNW. Retrieved 2016/01/27 09:03 UTC (4 years ago):

TAF TAF EKSB 270856Z 2709/2721 23022KT 5000 -RA BR BKN008 TEMPO 2709/2721 24025G40KT 2000 RADZ BKN004